Time;durP1;ratioP1;P1;durP2;ratioP2;P2;SDS_P1;SDS_P2;PMS_P1;PMS_P2;Temp;Humidity;BMP_temperature;BMP_pressure;BME280_temperature;BME280_humidity;BME280_pressure;Samples;Min_cycle;Max_cycle;Signal;HPM_P1;HPM_P2
2022/05/10 00:01:54;;;;;;;5.03;2.67;;;;;;;11.30;62.74;101522.66;1856409;77;21159;-67
2022/05/10 00:04:23;;;;;;;7.28;2.55;;;;;;;11.31;63.20;101529.68;1856265;77;21115;-67
2022/05/10 00:06:52;;;;;;;5.20;1.87;;;;;;;11.32;62.65;101529.61;1856372;77;21053;-67
2022/05/10 00:09:27;;;;;;;4.45;1.92;;;;;;;11.31;62.64;101523.94;1856272;77;21476;-67
2022/05/10 00:11:54;;;;;;;5.37;2.50;;;;;;;11.29;63.33;101528.40;1856114;76;21129;-67
2022/05/10 00:14:23;;;;;;;4.58;2.33;;;;;;;11.27;63.04;101528.02;1856227;77;21535;-68
2022/05/10 00:16:52;;;;;;;6.72;1.95;;;;;;;11.25;62.92;101528.52;1856526;77;21053;-68
2022/05/10 00:19:23;;;;;;;2.70;1.50;;;;;;;11.21;63.36;101530.38;1856143;77;21491;-68
2022/05/10 00:21:51;;;;;;;4.30;2.42;;;;;;;11.17;63.39;101532.70;1856329;77;21038;-66
2022/05/10 00:24:20;;;;;;;4.60;2.00;;;;;;;11.13;63.54;101532.39;1856310;77;21069;-68
2022/05/10 00:26:49;;;;;;;3.80;2.30;;;;;;;11.09;63.42;101536.88;1857513;76;21065;-68
2022/05/10 00:29:18;;;;;;;2.75;1.95;;;;;;;11.06;63.36;101530.83;1859282;77;21065;-67
2022/05/10 00:31:47;;;;;;;3.35;2.15;;;;;;;11.00;63.22;101533.19;1859303;77;21053;-68
2022/05/10 00:34:19;;;;;;;6.47;2.27;;;;;;;10.96;63.17;101538.14;1859228;77;21025;-69
2022/05/10 00:36:48;;;;;;;3.25;1.80;;;;;;;10.93;63.07;101539.53;1859302;77;21010;-69
2022/05/10 00:39:17;;;;;;;5.28;2.20;;;;;;;10.88;62.92;101542.73;1858951;77;21130;-67
2022/05/10 00:42:05;;;;;;;4.65;2.62;;;;;;;10.86;63.12;101540.60;1859332;77;21034;-68
2022/05/10 00:44:49;;;;;;;7.47;2.67;;;;;;;10.86;63.49;101537.51;1828758;78;21146;-69
2022/05/10 00:47:30;;;;;;;3.15;1.82;;;;;;;10.86;63.76;101535.34;1828822;78;21026;-68
2022/05/10 00:50:01;;;;;;;7.22;2.20;;;;;;;10.87;63.81;101539.71;1828433;78;21436;-68
2022/05/10 00:52:42;;;;;;;5.55;2.60;;;;;;;10.88;63.59;101535.72;1828813;78;21105;-67
2022/05/10 00:55:22;;;;;;;5.33;2.67;;;;;;;10.90;63.74;101530.38;1828797;78;21365;-68
2022/05/10 00:57:57;;;;;;;4.42;2.40;;;;;;;10.93;63.41;101536.89;1841505;77;21452;-69
2022/05/10 01:00:28;;;;;;;3.52;2.42;;;;;;;10.93;63.27;101543.48;1857490;76;21042;-67
2022/05/10 01:03:26;;;;;;;9.93;3.27;;;;;;;10.93;63.19;101540.84;1858008;77;21053;-70
2022/05/10 01:06:10;;;;;;;6.87;2.67;;;;;;;10.93;63.16;101540.39;1857894;77;21479;-68
2022/05/10 01:08:58;;;;;;;;;;;;;;;10.96;63.13;101547.36;1861889;77;21182;-68
2022/05/10 01:11:29;;;;;;;5.58;2.35;;;;;;;10.96;63.41;101552.63;1859553;77;20493;-69
2022/05/10 01:14:04;;;;;;;4.35;2.37;;;;;;;10.95;63.41;101550.89;1859398;76;21042;-68
2022/05/10 01:16:33;;;;;;;8.20;2.77;;;;;;;10.95;63.45;101551.74;1859289;77;21815;-69
2022/05/10 01:19:03;;;;;;;5.42;3.30;;;;;;;10.97;63.22;101558.30;1859303;77;21093;-69
2022/05/10 01:22:04;;;;;;;13.78;3.10;;;;;;;11.00;63.42;101556.91;1859312;77;21037;-69
2022/05/10 01:24:52;;;;;;;7.53;2.60;;;;;;;11.04;63.95;101558.54;1858636;75;21041;-69
2022/05/10 01:27:51;;;;;;;11.10;3.33;;;;;;;11.08;64.11;101558.86;1859306;76;21132;-69
2022/05/10 01:30:22;;;;;;;12.18;4.35;;;;;;;11.11;64.49;101556.14;1859506;77;21128;-69
2022/05/10 01:35:52;;;;;;;14.70;4.12;;;;;;;11.21;64.30;101552.78;1859338;77;21515;-67
2022/05/10 01:38:41;;;;;;;17.92;5.30;;;;;;;11.29;64.26;101556.08;1859174;77;21053;-68
2022/05/10 01:41:31;;;;;;;19.25;6.22;;;;;;;11.35;64.02;101554.58;1828745;78;21610;-67
2022/05/10 01:44:09;;;;;;;12.55;5.85;;;;;;;11.44;64.15;101558.72;1828390;77;21221;-68
2022/05/10 01:46:37;;;;;;;13.90;5.97;;;;;;;11.52;64.13;101567.25;1827987;78;21174;-68
2022/05/10 01:49:24;;;;;;;14.10;6.90;;;;;;;11.57;63.96;101566.67;1832816;77;21286;-68
2022/05/10 01:51:56;;;;;;;20.45;8.20;;;;;;;11.64;63.87;101565.16;1830011;77;21021;-69
2022/05/10 01:54:48;;;;;;;14.63;7.87;;;;;;;11.71;64.07;101564.95;1859495;77;21042;-69
2022/05/10 01:57:19;;;;;;;20.45;7.15;;;;;;;11.74;64.00;101566.62;1859640;77;21539;-67
2022/05/10 01:59:53;;;;;;;20.97;7.17;;;;;;;11.76;64.04;101563.47;1859446;77;21037;-67
2022/05/10 02:02:25;;;;;;;20.48;9.73;;;;;;;11.75;64.19;101572.31;1858052;75;21081;-67
2022/05/10 02:04:57;;;;;;;23.45;9.40;;;;;;;11.73;64.05;101577.64;1859490;77;21095;-67
2022/05/10 02:07:27;;;;;;;19.55;8.53;;;;;;;11.72;64.53;101582.95;1859636;77;21013;-71
2022/05/10 02:10:05;;;;;;;17.95;8.05;;;;;;;11.71;64.52;101583.84;1859649;77;21026;-70
2022/05/10 02:12:45;;;;;;;19.27;9.00;;;;;;;11.70;64.50;101586.09;1858728;76;21053;-69
2022/05/10 02:15:17;;;;;;;14.60;5.97;;;;;;;11.69;64.53;101593.59;1859250;75;21645;-68
2022/05/10 02:17:52;;;;;;;17.45;7.40;;;;;;;11.68;64.61;101595.38;1859755;77;21065;-70
2022/05/10 02:20:33;;;;;;;22.58;7.65;;;;;;;11.65;64.68;101597.23;1841371;77;21073;-69
2022/05/10 02:23:24;;;;;;;14.70;6.08;;;;;;;11.63;64.73;101599.06;1859180;77;21045;-67
2022/05/10 02:25:55;;;;;;;10.00;4.90;;;;;;;11.59;64.72;101596.50;1859560;77;21507;-69
2022/05/10 02:28:39;;;;;;;9.68;4.78;;;;;;;11.57;64.72;101604.92;1858481;76;21041;-67
2022/05/10 02:31:10;;;;;;;8.80;4.25;;;;;;;11.53;64.80;101604.60;1859360;77;21453;-70
2022/05/10 02:33:39;;;;;;;9.20;3.52;;;;;;;11.49;64.90;101607.36;1858587;77;21107;-71
2022/05/10 02:36:08;;;;;;;11.75;3.47;;;;;;;11.45;64.96;101611.86;1859489;77;21136;-69
2022/05/10 02:38:39;;;;;;;8.78;2.85;;;;;;;11.41;65.17;101616.81;1859623;77;21037;-67
2022/05/10 02:41:11;;;;;;;4.55;2.72;;;;;;;11.39;65.05;101612.05;1859490;77;21206;-67
2022/05/10 02:43:49;;;;;;;10.25;3.87;;;;;;;11.37;65.04;101615.19;1858252;77;21021;-68
2022/05/10 02:46:19;;;;;;;7.90;3.60;;;;;;;11.35;65.02;101618.32;1859421;77;21107;-70
2022/05/10 02:48:49;;;;;;;6.08;2.58;;;;;;;11.34;65.03;101616.58;1859427;77;21045;-68
2022/05/10 02:51:18;;;;;;;14.30;3.30;;;;;;;11.32;65.23;101617.08;1859446;77;21090;-67
2022/05/10 02:53:48;;;;;;;9.23;3.92;;;;;;;11.32;65.15;101626.30;1859705;77;21480;-68
2022/05/10 02:56:22;;;;;;;8.95;4.37;;;;;;;11.31;65.24;101628.55;1859723;77;21538;-66
2022/05/10 02:59:11;;;;;;;10.58;3.52;;;;;;;11.30;65.25;101629.44;1859536;77;21033;-67
2022/05/10 03:01:51;;;;;;;7.53;4.80;;;;;;;11.28;65.27;101638.70;1858306;77;21136;-67
2022/05/10 03:04:20;;;;;;;11.10;3.90;;;;;;;11.30;65.17;101642.63;1859565;77;21522;-67
2022/05/10 03:06:49;;;;;;;9.70;3.10;;;;;;;11.31;65.15;101647.00;1859594;77;21119;-67
2022/05/10 03:09:18;;;;;;;6.03;2.98;;;;;;;11.31;65.23;101649.64;1859410;77;21006;-71
2022/05/10 03:11:46;;;;;;;7.72;3.27;;;;;;;11.32;65.24;101653.98;1859539;77;21033;-68
2022/05/10 03:14:15;;;;;;;7.78;3.62;;;;;;;11.32;65.24;101656.63;1859452;77;21037;-70
2022/05/10 03:16:43;;;;;;;5.10;2.55;;;;;;;11.33;65.23;101652.63;1859428;77;21001;-68
2022/05/10 03:19:12;;;;;;;9.78;2.47;;;;;;;11.33;65.40;101656.59;1859544;77;21128;-69
2022/05/10 03:21:41;;;;;;;7.92;2.37;;;;;;;11.33;65.30;101652.63;1859465;77;21073;-69
2022/05/10 03:24:10;;;;;;;6.10;2.67;;;;;;;11.33;65.32;101657.91;1859441;77;21097;-72
2022/05/10 03:26:40;;;;;;;4.55;2.22;;;;;;;11.36;65.32;101660.90;1859364;77;21155;-68
2022/05/10 03:29:12;;;;;;;3.05;1.35;;;;;;;11.38;65.36;101660.44;1857199;75;21117;-68
2022/05/10 03:31:39;;;;;;;5.45;2.05;;;;;;;11.42;65.25;101660.75;1856531;77;21046;-68
2022/05/10 03:36:55;;;;;;;3.45;1.62;;;;;;;11.54;65.21;101670.94;1856646;77;21034;-69
2022/05/10 03:39:24;;;;;;;2.17;1.02;;;;;;;11.63;65.17;101673.78;1856484;77;21056;-67
2022/05/10 03:41:52;;;;;;;2.35;1.50;;;;;;;11.72;65.08;101667.37;1856362;77;21049;-68
2022/05/10 03:44:21;;;;;;;3.45;1.95;;;;;;;11.85;65.11;101671.38;1856550;77;21100;-69
2022/05/10 03:46:51;;;;;;;3.60;1.47;;;;;;;12.00;64.98;101665.27;1856380;77;21456;-69
2022/05/10 03:49:20;;;;;;;2.02;1.42;;;;;;;12.16;64.91;101668.72;1856539;77;21049;-70
2022/05/10 03:51:48;;;;;;;2.37;1.35;;;;;;;12.29;64.88;101670.52;1856388;77;21069;-69
2022/05/10 03:54:17;;;;;;;4.70;1.15;;;;;;;12.43;64.93;101683.73;1856454;77;21041;-67
2022/05/10 03:56:46;;;;;;;1.98;1.17;;;;;;;12.63;64.92;101672.53;1856636;77;21061;-71
2022/05/10 03:59:15;;;;;;;2.12;1.00;;;;;;;12.88;64.95;101681.84;1856532;77;21045;-68
2022/05/10 04:01:44;;;;;;;2.02;1.00;;;;;;;13.11;65.02;101683.69;1856400;77;21041;-71
2022/05/10 04:04:15;;;;;;;1.00;0.90;;;;;;;13.29;64.85;101692.77;1856593;77;21062;-68
2022/05/10 04:06:43;;;;;;;2.70;1.02;;;;;;;13.51;64.70;101687.14;1856523;77;21569;-71
2022/05/10 04:09:14;;;;;;;1.17;0.80;;;;;;;13.57;64.44;101690.49;1856411;76;21038;-69
2022/05/10 04:11:43;;;;;;;1.05;0.70;;;;;;;13.49;64.15;101685.48;1856574;77;21033;-71
2022/05/10 04:14:13;;;;;;;2.15;1.05;;;;;;;13.45;64.05;101688.70;1856766;77;21460;-69
2022/05/10 04:16:42;;;;;;;2.17;1.10;;;;;;;13.67;64.20;101689.25;1856460;77;21001;-71
2022/05/10 04:19:11;;;;;;;1.57;0.78;;;;;;;14.37;64.57;101700.72;1856483;77;21127;-71
2022/05/10 04:21:40;;;;;;;0.72;0.60;;;;;;;15.09;64.28;101696.89;1856685;77;21140;-68
2022/05/10 04:24:09;;;;;;;0.78;0.60;;;;;;;15.59;63.37;101689.39;1856446;77;21089;-71
2022/05/10 04:26:39;;;;;;;3.55;0.93;;;;;;;16.10;62.75;101692.41;1856287;77;21117;-71
2022/05/10 04:29:09;;;;;;;1.52;0.98;;;;;;;16.65;62.07;101695.98;1857357;76;21195;-71
2022/05/10 04:31:37;;;;;;;1.85;0.60;;;;;;;17.10;61.26;101689.34;1859318;77;21038;-68
2022/05/10 04:34:07;;;;;;;1.05;0.80;;;;;;;17.39;60.93;101695.78;1859350;77;21465;-70
2022/05/10 04:36:36;;;;;;;1.30;0.82;;;;;;;17.61;60.29;101694.17;1859359;77;21170;-69
2022/05/10 04:39:05;;;;;;;0.70;0.70;;;;;;;17.86;59.61;101691.57;1859235;77;21549;-71
2022/05/10 04:41:37;;;;;;;1.32;0.85;;;;;;;18.11;58.96;101689.73;1859346;77;21464;-71
2022/05/10 04:44:11;;;;;;;1.05;0.80;;;;;;;18.21;58.27;101683.43;1859361;77;21010;-71
2022/05/10 04:46:41;;;;;;;5.28;0.65;;;;;;;18.34;57.78;101683.12;1859388;77;21061;-70
2022/05/10 04:49:12;;;;;;;3.00;0.70;;;;;;;18.64;57.28;101686.30;1859246;77;21065;-70
2022/05/10 04:51:42;;;;;;;0.80;0.75;;;;;;;18.83;56.54;101680.32;1859419;77;21108;-67
2022/05/10 04:54:10;;;;;;;1.55;0.85;;;;;;;18.89;55.84;101683.10;1859267;77;21108;-67
2022/05/10 04:56:39;;;;;;;0.57;0.57;;;;;;;19.12;55.69;101684.37;1859348;77;21026;-66
2022/05/10 04:59:07;;;;;;;1.25;0.82;;;;;;;19.24;55.06;101694.33;1859312;77;21104;-67
2022/05/10 05:01:37;;;;;;;2.15;0.65;;;;;;;19.33;54.57;101685.36;1859512;77;21139;-70
2022/05/10 05:04:06;;;;;;;1.40;0.70;;;;;;;19.68;54.37;101688.07;1859216;77;21432;-70
2022/05/10 05:06:39;;;;;;;1.47;0.98;;;;;;;20.04;54.00;101687.20;1859422;77;21420;-70
2022/05/10 05:09:06;;;;;;;0.85;0.70;;;;;;;20.31;53.63;101685.91;1859067;75;21049;-69
2022/05/10 05:11:44;;;;;;;0.47;0.47;;;;;;;20.63;53.37;101688.30;1859539;77;21428;-66
2022/05/10 05:14:12;;;;;;;3.02;0.78;;;;;;;20.83;52.82;101693.17;1859292;77;21488;-69
2022/05/10 05:16:46;;;;;;;4.50;0.80;;;;;;;21.05;52.00;101689.05;1859150;77;21104;-70
2022/05/10 05:19:11;;;;;;;1.92;0.70;;;;;;;21.14;51.18;101693.78;1857885;77;21045;-71
2022/05/10 05:21:40;;;;;;;1.15;0.88;;;;;;;21.30;50.87;101700.28;1859435;77;21100;-65
2022/05/10 05:24:12;;;;;;;0.88;0.70;;;;;;;21.58;50.49;101705.94;1859475;77;21065;-65
2022/05/10 05:26:40;;;;;;;1.12;0.70;;;;;;;21.79;49.74;101695.50;1859509;77;21107;-69
2022/05/10 05:29:09;;;;;;;1.25;0.70;;;;;;;21.94;49.19;101698.91;1858836;76;21144;-68
2022/05/10 05:31:38;;;;;;;0.70;0.70;;;;;;;22.13;48.99;101694.89;1856495;77;21092;-68
2022/05/10 05:34:07;;;;;;;0.90;0.60;;;;;;;22.22;48.53;101697.39;1856472;77;21061;-70
2022/05/10 05:36:37;;;;;;;1.55;0.65;;;;;;;22.19;47.79;101691.78;1856432;77;21099;-70
2022/05/10 05:39:06;;;;;;;2.30;0.75;;;;;;;22.18;47.72;101695.42;1853391;77;21037;-66
2022/05/10 05:41:35;;;;;;;2.10;0.68;;;;;;;22.38;46.98;101694.48;1856262;77;21042;-69
2022/05/10 05:44:04;;;;;;;0.50;0.50;;;;;;;22.39;46.26;101689.47;1856522;77;21041;-69
2022/05/10 05:46:33;;;;;;;0.55;0.55;;;;;;;22.22;44.49;101694.71;1856436;77;21103;-66
2022/05/10 05:49:03;;;;;;;0.60;0.60;;;;;;;22.24;44.97;101688.25;1855360;76;21065;-69
2022/05/10 05:51:36;;;;;;;0.62;0.60;;;;;;;22.38;44.51;101693.98;1856534;76;21116;-66
2022/05/10 05:54:10;;;;;;;1.90;1.02;;;;;;;22.49;44.37;101698.56;1854994;76;21041;-67
2022/05/10 05:56:39;;;;;;;0.88;0.78;;;;;;;22.84;44.29;101689.69;1824572;77;21131;-69
2022/05/10 05:59:05;;;;;;;1.30;0.70;;;;;;;23.16;43.37;101697.13;1824299;78;21131;-66
2022/05/10 06:01:33;;;;;;;0.60;0.53;;;;;;;23.25;43.22;101700.45;1832055;77;21025;-68
2022/05/10 06:04:04;;;;;;;1.35;0.90;;;;;;;23.44;42.66;101699.39;1856268;77;21147;-69
2022/05/10 06:06:34;;;;;;;1.62;0.60;;;;;;;23.68;42.07;101695.25;1856294;77;21468;-70
2022/05/10 06:09:05;;;;;;;1.25;0.50;;;;;;;23.94;41.35;101695.49;1856511;77;21037;-69
2022/05/10 06:11:34;;;;;;;1.37;0.70;;;;;;;23.99;40.89;101695.98;1855965;75;21495;-66
2022/05/10 06:14:06;;;;;;;1.40;0.50;;;;;;;24.17;40.44;101702.56;1856265;77;21132;-66
2022/05/10 06:16:35;;;;;;;2.47;0.80;;;;;;;24.41;40.32;101695.65;1856868;77;21030;-66
2022/05/10 06:19:03;;;;;;;3.52;0.60;;;;;;;24.07;38.11;101699.77;1856314;77;21386;-69
2022/05/10 06:21:32;;;;;;;3.60;0.75;;;;;;;24.03;38.30;101693.41;1856397;77;21002;-66
2022/05/10 06:24:01;;;;;;;0.60;0.60;;;;;;;23.99;38.26;101695.48;1856267;77;21022;-69
2022/05/10 06:26:30;;;;;;;0.62;0.50;;;;;;;24.37;38.10;101695.55;1856317;77;21097;-70
2022/05/10 06:28:59;;;;;;;1.27;0.50;;;;;;;24.24;37.04;101699.73;1856435;77;21534;-68
2022/05/10 06:31:27;;;;;;;0.85;0.40;;;;;;;23.93;36.67;101702.72;1856430;76;21151;-73
2022/05/10 06:34:01;;;;;;;1.67;0.60;;;;;;;23.81;36.73;101702.34;1856292;77;21511;-68
2022/05/10 06:36:32;;;;;;;2.25;1.00;;;;;;;23.96;36.45;101700.26;1856443;77;21112;-73
2022/05/10 06:39:01;;;;;;;2.15;1.00;;;;;;;24.12;36.47;101704.77;1856408;77;21113;-72
2022/05/10 06:41:31;;;;;;;3.30;0.80;;;;;;;24.51;36.86;101697.08;1856381;77;21049;-68
2022/05/10 06:44:02;;;;;;;0.72;0.57;;;;;;;24.88;36.61;101703.48;1856144;77;21069;-69
2022/05/10 06:46:32;;;;;;;0.82;0.75;;;;;;;24.98;36.00;101703.03;1855707;75;21162;-67
2022/05/10 06:49:02;;;;;;;1.42;0.47;;;;;;;25.02;35.82;101697.73;1856532;77;21041;-68
2022/05/10 06:51:32;;;;;;;2.02;0.65;;;;;;;25.18;35.50;101703.19;1856526;77;21479;-69
2022/05/10 06:54:01;;;;;;;0.62;0.57;;;;;;;25.19;35.36;101708.92;1856527;77;21416;-70
2022/05/10 06:56:30;;;;;;;2.65;1.02;;;;;;;25.18;34.26;101705.88;1856211;77;21084;-68
2022/05/10 06:58:58;;;;;;;2.98;0.70;;;;;;;25.03;33.67;101709.39;1856349;77;21115;-70
2022/05/10 07:01:27;;;;;;;1.00;0.78;;;;;;;25.48;33.67;101706.43;1856402;77;21041;-67
2022/05/10 07:03:56;;;;;;;5.15;0.80;;;;;;;26.03;33.59;101701.23;1856390;77;21045;-70
2022/05/10 07:06:24;;;;;;;0.60;0.60;;;;;;;26.49;33.18;101699.25;1856298;77;21037;-67
2022/05/10 07:08:53;;;;;;;1.47;0.70;;;;;;;26.49;32.29;101697.89;1856120;77;21065;-69
2022/05/10 07:11:31;;;;;;;3.62;0.80;;;;;;;26.65;32.11;101705.48;1856280;77;21076;-67
2022/05/10 07:13:56;;;;;;;1.77;0.60;;;;;;;27.07;32.00;101701.09;1854852;77;21065;-70
2022/05/10 07:16:25;;;;;;;0.70;0.70;;;;;;;26.49;31.46;101711.40;1856427;76;21124;-70
2022/05/10 07:18:55;;;;;;;2.75;0.70;;;;;;;25.24;31.49;101708.06;1856424;77;21030;-67
2022/05/10 07:21:27;;;;;;;1.55;0.70;;;;;;;24.40;31.81;101703.84;1856221;77;21046;-67
2022/05/10 07:23:55;;;;;;;1.80;0.70;;;;;;;24.87;31.75;101701.75;1856315;77;21033;-67
2022/05/10 07:26:24;;;;;;;4.67;1.60;;;;;;;25.39;31.52;101706.73;1856307;77;21069;-69
2022/05/10 07:28:54;;;;;;;5.33;1.17;;;;;;;25.96;31.11;101705.81;1856361;77;21049;-69
2022/05/10 07:31:23;;;;;;;2.90;0.90;;;;;;;26.39;30.88;101702.42;1856516;76;21069;-70
2022/05/10 07:33:57;;;;;;;3.58;0.70;;;;;;;26.80;30.60;101709.08;1858662;77;21080;-69
2022/05/10 07:36:39;;;;;;;1.52;0.82;;;;;;;27.16;30.08;101701.58;1830711;76;21112;-70
2022/05/10 07:39:18;;;;;;;1.05;0.60;;;;;;;27.43;29.79;101702.70;1858294;76;21143;-67
2022/05/10 07:41:54;;;;;;;0.93;0.65;;;;;;;27.30;29.92;101707.07;1857973;75;21041;-68
2022/05/10 07:44:15;;;;;;;0.93;0.50;;;;;;;27.45;29.69;101703.91;1856929;77;21050;-70
2022/05/10 07:46:47;;;;;;;6.35;0.90;;;;;;;27.81;29.27;101697.27;1858027;75;21053;-70
2022/05/10 07:49:17;;;;;;;0.75;0.60;;;;;;;28.12;28.40;101695.14;1858653;75;21073;-70
2022/05/10 07:51:47;;;;;;;2.05;0.68;;;;;;;28.27;27.34;101708.50;1858988;77;21518;-70
2022/05/10 07:54:17;;;;;;;0.80;0.60;;;;;;;28.47;27.27;101704.31;1859291;77;21472;-67
2022/05/10 07:56:46;;;;;;;1.42;0.60;;;;;;;28.03;27.59;101701.46;1859152;77;21021;-69
2022/05/10 07:59:15;;;;;;;1.10;0.40;;;;;;;26.66;27.60;101707.68;1858702;77;21175;-68
2022/05/10 08:01:44;;;;;;;3.05;0.60;;;;;;;25.45;28.09;101708.54;1859356;77;21041;-67
2022/05/10 08:04:14;;;;;;;7.97;1.00;;;;;;;24.70;28.70;101706.34;1859246;77;21030;-67
2022/05/10 08:06:42;;;;;;;1.27;0.60;;;;;;;24.16;29.25;101712.09;1855883;76;21119;-67
2022/05/10 08:09:13;;;;;;;1.47;0.50;;;;;;;23.54;29.45;101718.83;1859167;77;21029;-68
2022/05/10 08:11:44;;;;;;;1.47;0.70;;;;;;;23.06;29.98;101718.48;1858929;76;21065;-71
2022/05/10 08:14:14;;;;;;;3.33;1.07;;;;;;;22.66;30.50;101718.28;1859227;76;21091;-67
2022/05/10 08:16:43;;;;;;;0.90;0.60;;;;;;;22.40;30.79;101718.88;1859547;77;21037;-67
2022/05/10 08:19:11;;;;;;;2.67;0.95;;;;;;;22.87;30.67;101717.63;1859211;77;21021;-68
2022/05/10 08:21:43;;;;;;;1.37;0.88;;;;;;;23.33;30.06;101714.13;1859309;77;21073;-67
2022/05/10 08:24:15;;;;;;;4.08;0.80;;;;;;;23.71;29.82;101718.34;1859471;77;21124;-68
2022/05/10 08:26:44;;;;;;;2.75;0.80;;;;;;;23.94;29.36;101713.86;1859492;77;21554;-68
2022/05/10 08:29:18;;;;;;;3.90;0.93;;;;;;;24.15;28.43;101699.14;1859187;77;21468;-68
2022/05/10 08:31:47;;;;;;;3.58;1.25;;;;;;;24.61;28.57;101711.53;1858159;75;21593;-67
2022/05/10 08:34:20;;;;;;;1.65;0.80;;;;;;;25.58;28.28;101708.70;1856270;77;21046;-71
2022/05/10 08:36:49;;;;;;;2.62;0.60;;;;;;;26.37;27.95;101706.64;1854914;77;21135;-72
2022/05/10 08:39:18;;;;;;;4.97;1.22;;;;;;;26.77;27.17;101700.78;1856618;77;21119;-72
2022/05/10 08:41:52;;;;;;;2.60;0.85;;;;;;;27.43;27.22;101703.20;1856319;77;21107;-69
2022/05/10 08:44:24;;;;;;;1.75;0.65;;;;;;;27.94;26.62;101696.45;1855169;75;21175;-70
2022/05/10 08:47:03;;;;;;;1.90;0.90;;;;;;;28.43;25.33;101701.57;1856434;76;21069;-71
2022/05/10 08:49:45;;;;;;;5.10;0.50;;;;;;;28.77;25.54;101696.83;1845692;77;21235;-71
2022/05/10 08:52:16;;;;;;;2.72;0.78;;;;;;;29.14;25.28;101693.95;1856437;76;21116;-70
2022/05/10 08:54:46;;;;;;;1.05;0.70;;;;;;;29.30;25.18;101693.19;1856353;77;21041;-68
2022/05/10 08:57:29;;;;;;;1.82;0.75;;;;;;;29.24;24.65;101693.32;1856170;77;21468;-69
2022/05/10 09:00:13;;;;;;;0.70;0.60;;;;;;;29.36;24.32;101686.27;1826723;77;21042;-68
2022/05/10 09:02:45;;;;;;;1.35;0.60;;;;;;;28.99;24.17;101691.41;1856289;77;21092;-69
2022/05/10 09:05:33;;;;;;;0.80;0.70;;;;;;;28.52;24.14;101687.61;1856605;77;21115;-71
2022/05/10 09:08:07;;;;;;;5.60;0.85;;;;;;;27.33;24.62;101694.62;1856343;77;21139;-71
2022/05/10 09:10:38;;;;;;;2.75;0.80;;;;;;;26.18;25.28;101696.63;1856317;77;21127;-69
2022/05/10 09:13:15;;;;;;;2.47;0.80;;;;;;;25.33;25.53;101691.09;1856306;75;21043;-71
2022/05/10 09:15:52;;;;;;;0.93;0.70;;;;;;;24.74;25.83;101691.66;1856268;77;21066;-70
2022/05/10 09:18:27;;;;;;;0.62;0.62;;;;;;;24.06;26.11;101687.28;1825488;78;21588;-70
2022/05/10 09:21:07;;;;;;;1.10;0.53;;;;;;;23.41;26.36;101696.94;1843105;77;21441;-69
2022/05/10 09:24:02;;;;;;;1.00;0.55;;;;;;;22.91;26.79;101690.94;1856327;75;21456;-70
2022/05/10 09:26:36;;;;;;;1.30;0.68;;;;;;;22.80;27.13;101689.56;1856277;77;21108;-69
2022/05/10 09:29:24;;;;;;;0.68;0.60;;;;;;;23.77;26.90;101672.12;1855691;76;21017;-68
2022/05/10 09:34:47;;;;;;;2.17;0.70;;;;;;;25.62;25.27;101682.31;1856393;77;21472;-68
2022/05/10 09:37:34;;;;;;;1.35;0.50;;;;;;;26.26;25.26;101680.24;1856430;77;21519;-69
2022/05/10 09:40:09;;;;;;;1.32;1.02;;;;;;;26.75;24.90;101675.76;1856531;77;21472;-70
2022/05/10 09:42:43;;;;;;;0.53;0.40;;;;;;;27.06;24.41;101683.70;1856520;77;21480;-68
2022/05/10 09:45:18;;;;;;;1.00;0.62;;;;;;;27.27;24.33;101676.77;1856359;77;21033;-68
2022/05/10 09:48:02;;;;;;;0.70;0.70;;;;;;;27.46;24.22;101678.55;1856522;77;21114;-67
2022/05/10 09:50:36;;;;;;;4.17;0.72;;;;;;;27.60;23.81;101678.58;1825562;78;21115;-67
2022/05/10 09:53:25;;;;;;;1.85;0.60;;;;;;;27.73;23.55;101673.16;1825538;78;21122;-67
2022/05/10 09:56:00;;;;;;;0.75;0.75;;;;;;;27.80;23.49;101673.94;1825476;78;21144;-69
2022/05/10 09:58:31;;;;;;;0.88;0.60;;;;;;;27.51;23.48;101673.55;1831214;77;21029;-67
2022/05/10 10:01:03;;;;;;;4.33;0.70;;;;;;;27.04;23.56;101673.50;1856387;77;21009;-70
2022/05/10 10:03:34;;;;;;;4.17;0.90;;;;;;;26.99;23.67;101677.16;1856632;77;21064;-70
2022/05/10 10:06:24;;;;;;;3.30;0.95;;;;;;;26.95;23.84;101663.92;1856295;77;21014;-69
2022/05/10 10:08:57;;;;;;;1.90;0.62;;;;;;;26.78;24.00;101670.05;1856235;77;21061;-70
2022/05/10 10:11:32;;;;;;;1.87;0.85;;;;;;;26.81;23.87;101663.02;1856394;77;21092;-68
2022/05/10 10:14:10;;;;;;;1.20;0.50;;;;;;;26.63;23.92;101667.44;1856546;77;21014;-67
2022/05/10 10:16:51;;;;;;;2.62;0.68;;;;;;;26.39;23.10;101654.70;1856280;77;21030;-70
2022/05/10 10:19:25;;;;;;;0.60;0.60;;;;;;;26.09;23.50;101665.08;1856330;77;21078;-67
2022/05/10 10:21:56;;;;;;;0.55;0.55;;;;;;;25.88;23.74;101663.80;1856392;77;21049;-67
2022/05/10 10:24:28;;;;;;;2.05;0.62;;;;;;;25.95;24.03;101664.12;1835396;75;21065;-66
2022/05/10 10:26:59;;;;;;;0.85;0.50;;;;;;;25.93;24.07;101656.66;1856011;75;21026;-67
2022/05/10 10:29:34;;;;;;;2.67;0.70;;;;;;;25.87;24.24;101658.54;1856406;77;21034;-66
2022/05/10 10:32:08;;;;;;;1.05;0.68;;;;;;;25.38;23.78;101660.56;1852621;76;21601;-68
2022/05/10 10:34:55;;;;;;;1.55;0.60;;;;;;;25.10;24.04;101655.81;1855287;75;21049;-69
2022/05/10 10:37:38;;;;;;;2.92;0.80;;;;;;;24.83;23.94;101651.83;1856120;77;21099;-67
2022/05/10 10:40:24;;;;;;;;;;;;;;;24.38;23.63;101656.02;1858855;77;21042;-68
2022/05/10 10:43:16;;;;;;;0.85;0.60;;;;;;;24.03;24.05;101652.59;1856389;77;20148;-67
2022/05/10 10:45:54;;;;;;;3.80;0.70;;;;;;;24.18;24.44;101653.63;1855967;76;21046;-67
2022/05/10 10:48:38;;;;;;;2.52;0.50;;;;;;;24.27;24.56;101657.78;1854236;75;21081;-67
2022/05/10 10:51:09;;;;;;;1.12;0.68;;;;;;;24.35;24.68;101664.37;1855375;76;21585;-69
2022/05/10 10:53:39;;;;;;;1.37;0.55;;;;;;;24.05;24.68;101656.47;1856580;77;21038;-69
2022/05/10 10:56:19;;;;;;;2.17;0.78;;;;;;;23.91;24.76;101666.18;1856242;77;21476;-68
2022/05/10 10:59:10;;;;;;;0.72;0.60;;;;;;;23.79;24.61;101659.91;1833330;77;21042;-69
2022/05/10 11:01:41;;;;;;;0.70;0.55;;;;;;;23.37;24.74;101668.59;1856330;77;21025;-69
2022/05/10 11:04:15;;;;;;;1.85;0.62;;;;;;;22.59;24.91;101662.00;1855359;75;21013;-67
2022/05/10 11:06:47;;;;;;;2.00;0.82;;;;;;;22.06;25.50;101669.48;1856260;75;21112;-68
2022/05/10 11:09:24;;;;;;;1.37;0.60;;;;;;;21.53;25.93;101662.52;1856191;75;21042;-70
2022/05/10 11:12:04;;;;;;;7.58;0.68;;;;;;;21.13;26.21;101658.58;1856372;77;21527;-68
2022/05/10 11:14:42;;;;;;;2.33;0.65;;;;;;;21.15;26.38;101657.13;1855923;77;21105;-68
2022/05/10 11:17:35;;;;;;;1.27;0.85;;;;;;;21.35;26.36;101650.39;1854775;75;21073;-70
2022/05/10 11:20:19;;;;;;;0.90;0.68;;;;;;;21.52;26.38;101650.56;1856425;77;21026;-68
2022/05/10 11:23:06;;;;;;;2.08;0.80;;;;;;;21.74;26.43;101648.55;1856394;77;21611;-70
2022/05/10 11:26:02;;;;;;;0.65;0.53;;;;;;;21.85;26.36;101650.46;1856371;77;21124;-67
2022/05/10 11:28:49;;;;;;;3.65;1.30;;;;;;;21.88;26.47;101640.37;1856288;77;21054;-69
2022/05/10 11:31:36;;;;;;;0.78;0.65;;;;;;;21.85;26.46;101645.10;1856387;77;21029;-69
2022/05/10 11:34:25;;;;;;;0.68;0.62;;;;;;;21.75;26.56;101644.92;1856165;76;21061;-67
2022/05/10 11:36:59;;;;;;;0.70;0.50;;;;;;;21.57;26.42;101645.25;1856418;77;21460;-69
2022/05/10 11:39:40;;;;;;;0.80;0.65;;;;;;;21.34;26.13;101646.87;1855899;77;21191;-67
2022/05/10 11:42:32;;;;;;;2.33;0.75;;;;;;;21.13;26.04;101640.32;1856448;77;21156;-67
2022/05/10 11:45:21;;;;;;;1.52;0.57;;;;;;;21.13;26.38;101636.30;1848384;76;21048;-67
2022/05/10 11:48:01;;;;;;;0.82;0.50;;;;;;;21.07;26.65;101640.75;1854330;75;21037;-70
2022/05/10 11:53:52;;;;;;;1.90;0.72;;;;;;;20.95;27.07;101635.75;1856365;77;21497;-67
2022/05/10 11:56:21;;;;;;;1.62;0.60;;;;;;;21.10;27.09;101640.52;1854170;76;21038;-70
2022/05/10 11:58:50;;;;;;;1.65;0.60;;;;;;;21.18;27.06;101636.36;1856283;77;21108;-68
2022/05/10 12:01:47;;;;;;;3.05;1.40;;;;;;;21.27;27.11;101628.66;1856400;77;21488;-70
2022/05/10 12:04:41;;;;;;;3.25;0.70;;;;;;;21.33;26.80;101623.70;1855531;77;21500;-70
2022/05/10 12:07:25;;;;;;;5.12;0.60;;;;;;;21.11;26.70;101624.84;1856394;77;21069;-68